createdAt,value
2019-02-23T00:01:49.448Z,20.87
2019-02-23T00:04:20.640Z,19.03
2019-02-23T00:06:51.969Z,18.00
2019-02-23T00:09:23.163Z,16.23
2019-02-23T00:11:54.403Z,15.13
2019-02-23T00:14:25.599Z,16.27
2019-02-23T00:16:57.061Z,14.37
2019-02-23T00:19:28.627Z,15.43
2019-02-23T00:22:00.089Z,15.70
2019-02-23T00:24:31.260Z,14.97
2019-02-23T00:27:02.500Z,14.47
2019-02-23T00:29:33.883Z,14.23
2019-02-23T00:32:05.053Z,15.17
2019-02-23T00:34:36.511Z,13.63
2019-02-23T00:37:08.010Z,13.47
2019-02-23T00:39:39.101Z,14.77
2019-02-23T00:42:10.560Z,13.20
2019-02-23T00:44:41.766Z,14.40
2019-02-23T00:47:12.930Z,13.93
2019-02-23T00:49:44.002Z,14.50
2019-02-23T00:52:15.553Z,14.93
2019-02-23T00:54:46.641Z,12.67
2019-02-23T00:57:17.733Z,14.27
2019-02-23T00:59:48.826Z,12.57
2019-02-23T01:02:19.981Z,15.33
2019-02-23T01:04:51.071Z,15.83
2019-02-23T01:07:22.375Z,16.70
2019-02-23T01:09:53.479Z,15.37
2019-02-23T01:12:24.732Z,16.30
2019-02-23T01:14:55.902Z,15.97
2019-02-23T01:17:27.012Z,15.90
2019-02-23T01:20:01.885Z,14.07
2019-02-23T01:22:33.156Z,16.40
2019-02-23T01:25:04.494Z,13.70
2019-02-23T01:27:35.746Z,13.03
2019-02-23T01:30:10.812Z,14.50
2019-02-23T01:32:42.071Z,15.20
2019-02-23T01:35:13.729Z,16.57
2019-02-23T01:37:44.926Z,13.80
2019-02-23T01:40:16.596Z,15.63
2019-02-23T01:42:47.865Z,14.27
2019-02-23T01:45:19.186Z,18.00
2019-02-23T01:47:50.419Z,18.37
2019-02-23T01:50:21.636Z,17.30
2019-02-23T01:52:53.257Z,14.73
2019-02-23T01:55:24.696Z,16.03
2019-02-23T01:57:55.802Z,15.90
2019-02-23T02:00:27.406Z,18.17
2019-02-23T02:02:58.654Z,16.27
2019-02-23T02:05:29.907Z,17.63
2019-02-23T02:08:01.450Z,17.97
2019-02-23T02:10:33.116Z,17.73
2019-02-23T02:13:04.216Z,17.93
2019-02-23T02:15:35.567Z,17.47
2019-02-23T02:18:06.905Z,16.93
2019-02-23T02:20:38.386Z,19.23
2019-02-23T02:23:09.554Z,21.00
2019-02-23T02:25:40.981Z,18.27
2019-02-23T02:28:12.256Z,19.30
2019-02-23T02:30:43.500Z,19.10
2019-02-23T02:33:14.942Z,17.90
2019-02-23T02:35:46.235Z,18.80
2019-02-23T02:38:17.435Z,19.23
2019-02-23T02:41:07.811Z,19.57
2019-02-23T02:43:39.035Z,18.93
2019-02-23T02:46:10.108Z,18.30
2019-02-23T02:48:41.602Z,20.43
2019-02-23T02:51:12.750Z,17.23
2019-02-23T02:53:44.236Z,21.13
2019-02-23T02:56:15.365Z,19.80
2019-02-23T02:58:46.627Z,21.63
2019-02-23T03:01:17.897Z,20.67
2019-02-23T03:03:49.008Z,19.93
2019-02-23T03:06:20.264Z,20.33
2019-02-23T03:08:51.535Z,20.97
2019-02-23T03:11:23.045Z,21.93
2019-02-23T03:13:54.198Z,21.13
2019-02-23T03:16:25.434Z,21.87
2019-02-23T03:18:56.599Z,21.53
2019-02-23T03:21:27.717Z,21.50
2019-02-23T03:23:59.189Z,20.70
2019-02-23T03:26:30.306Z,20.73
2019-02-23T03:29:01.381Z,22.20
2019-02-23T03:31:32.503Z,22.33
2019-02-23T03:34:03.660Z,21.60
2019-02-23T03:36:34.814Z,24.80
2019-02-23T03:39:06.861Z,23.30
2019-02-23T03:41:37.980Z,20.00
2019-02-23T03:44:09.522Z,22.63
2019-02-23T03:46:40.771Z,22.70
2019-02-23T03:49:12.011Z,23.57
2019-02-23T03:51:43.554Z,23.10
2019-02-23T03:54:14.953Z,22.33
2019-02-23T03:56:46.096Z,23.03
2019-02-23T03:59:17.407Z,22.17
2019-02-23T04:01:48.675Z,21.83
2019-02-23T04:04:20.118Z,24.47
2019-02-23T04:06:51.267Z,19.00
2019-02-23T04:09:22.443Z,23.03
2019-02-23T04:11:53.713Z,21.67
2019-02-23T04:14:24.805Z,19.50
2019-02-23T04:16:55.943Z,20.30
2019-02-23T04:19:27.684Z,19.27
2019-02-23T04:21:59.098Z,21.33
2019-02-23T04:24:30.548Z,18.63
2019-02-23T04:27:01.698Z,19.20
2019-02-23T04:29:32.776Z,20.40
2019-02-23T04:32:03.943Z,20.20
2019-02-23T04:34:35.439Z,19.00
2019-02-23T04:37:06.591Z,17.73
2019-02-23T04:39:37.688Z,19.20
2019-02-23T04:42:08.847Z,18.87
2019-02-23T04:44:40.095Z,17.80
2019-02-23T04:47:11.269Z,18.03
2019-02-23T04:49:42.405Z,21.00
2019-02-23T04:52:13.526Z,18.20
2019-02-23T04:54:44.625Z,17.07
2019-02-23T04:57:15.972Z,16.60
2019-02-23T04:59:47.133Z,17.97
2019-02-23T05:02:18.368Z,19.63
2019-02-23T05:04:49.571Z,20.63
2019-02-23T05:07:20.689Z,18.73
2019-02-23T05:09:51.876Z,17.17
2019-02-23T05:12:23.285Z,15.77
2019-02-23T05:14:54.654Z,16.40
2019-02-23T05:17:25.764Z,17.07
2019-02-23T05:19:57.460Z,16.07
2019-02-23T05:22:29.018Z,18.47
2019-02-23T05:25:00.325Z,17.17
2019-02-23T05:27:31.462Z,16.30
2019-02-23T05:30:02.771Z,16.63
2019-02-23T05:32:34.361Z,16.70
2019-02-23T05:35:06.067Z,18.13
2019-02-23T05:37:37.223Z,15.03
2019-02-23T05:40:09.887Z,18.73
2019-02-23T05:42:41.188Z,17.77
2019-02-23T05:45:12.500Z,17.73
2019-02-23T05:47:43.599Z,16.30
2019-02-23T05:50:15.027Z,16.87
2019-02-23T05:52:46.100Z,17.17
2019-02-23T05:55:17.183Z,17.17
2019-02-23T05:57:48.555Z,16.93
2019-02-23T06:00:19.841Z,19.47
2019-02-23T06:02:50.939Z,20.40
2019-02-23T06:05:22.006Z,17.70
2019-02-23T06:07:53.203Z,18.43
2019-02-23T06:10:24.721Z,18.43
2019-02-23T06:12:56.155Z,17.67
2019-02-23T06:15:27.762Z,17.57
2019-02-23T06:17:58.924Z,19.83
2019-02-23T06:20:30.177Z,17.37
2019-02-23T06:23:01.604Z,16.73
2019-02-23T06:25:32.742Z,17.00
2019-02-23T06:28:04.503Z,18.60
2019-02-23T06:30:36.160Z,18.43
2019-02-23T06:33:07.426Z,18.20
2019-02-23T06:35:38.848Z,18.97
2019-02-23T06:38:09.958Z,16.40
2019-02-23T06:40:41.636Z,18.27
2019-02-23T06:43:13.076Z,17.60
2019-02-23T06:45:44.812Z,17.03
2019-02-23T06:48:15.888Z,16.13
2019-02-23T06:50:46.939Z,17.17
2019-02-23T06:53:18.032Z,17.30
2019-02-23T06:55:49.205Z,20.10
2019-02-23T06:58:20.737Z,16.53
2019-02-23T07:00:51.937Z,13.63
2019-02-23T07:03:23.063Z,15.90
2019-02-23T07:05:54.148Z,16.77
2019-02-23T07:08:25.334Z,17.63
2019-02-23T07:10:56.399Z,16.73
2019-02-23T07:13:27.478Z,16.43
2019-02-23T07:15:59.228Z,15.23
2019-02-23T07:18:30.707Z,18.13
2019-02-23T07:21:02.272Z,16.10
2019-02-23T07:23:33.371Z,15.17
2019-02-23T07:26:04.444Z,16.10
2019-02-23T07:28:36.174Z,16.37
2019-02-23T07:31:07.283Z,18.07
2019-02-23T07:33:38.764Z,15.73
2019-02-23T07:36:09.911Z,15.53
2019-02-23T07:38:41.391Z,15.33
2019-02-23T07:41:12.899Z,15.70
2019-02-23T07:43:46.650Z,14.37
2019-02-23T07:46:19.228Z,15.37
2019-02-23T07:48:50.387Z,15.17
2019-02-23T07:51:22.096Z,15.10
2019-02-23T07:53:53.597Z,14.37
2019-02-23T07:56:24.725Z,18.03
2019-02-23T07:58:55.879Z,15.93
2019-02-23T08:01:27.036Z,17.87
2019-02-23T08:03:58.211Z,17.53
2019-02-23T08:06:29.292Z,15.97
2019-02-23T08:09:00.718Z,17.23
2019-02-23T08:11:31.865Z,17.30
2019-02-23T08:14:02.977Z,17.90
2019-02-23T08:16:34.199Z,17.70
2019-02-23T08:19:05.358Z,17.93
2019-02-23T08:21:36.726Z,16.33
2019-02-23T08:24:08.051Z,14.93
2019-02-23T08:26:39.216Z,15.20
2019-02-23T08:29:10.296Z,15.07
2019-02-23T08:31:41.817Z,15.53
2019-02-23T08:34:13.171Z,17.30
2019-02-23T08:36:44.694Z,17.23
2019-02-23T08:39:15.937Z,17.50
2019-02-23T08:41:47.155Z,15.93
2019-02-23T08:44:18.532Z,13.87
2019-02-23T08:46:49.999Z,18.37
2019-02-23T08:49:21.296Z,15.87
2019-02-23T08:51:52.564Z,14.17
2019-02-23T08:54:24.192Z,15.53
2019-02-23T08:56:55.482Z,13.70
2019-02-23T08:59:26.676Z,14.50
2019-02-23T09:01:58.005Z,14.67
2019-02-23T09:04:29.659Z,16.63
2019-02-23T09:07:01.292Z,14.70
2019-02-23T09:09:33.072Z,14.83
2019-02-23T09:12:04.411Z,13.53
2019-02-23T09:14:35.598Z,11.43
2019-02-23T09:17:07.463Z,15.40
2019-02-23T09:19:39.014Z,14.47
2019-02-23T09:22:10.243Z,15.73
2019-02-23T09:24:41.525Z,14.17
2019-02-23T09:27:12.997Z,14.00
2019-02-23T09:29:44.858Z,16.07
2019-02-23T09:32:15.990Z,17.07
2019-02-23T09:34:47.379Z,16.27
2019-02-23T09:37:19.668Z,13.20
2019-02-23T09:39:51.347Z,13.23
2019-02-23T09:42:23.963Z,14.37
2019-02-23T09:44:58.026Z,14.33
2019-02-23T09:47:32.267Z,14.17
2019-02-23T09:50:04.983Z,13.40
2019-02-23T09:52:36.984Z,13.73
2019-02-23T09:55:10.408Z,15.00
2019-02-23T09:57:43.129Z,13.97
2019-02-23T10:00:15.343Z,14.30
2019-02-23T10:02:48.158Z,13.93
2019-02-23T10:05:22.326Z,13.03
2019-02-23T10:07:56.125Z,14.23
2019-02-23T10:10:31.559Z,14.93
2019-02-23T10:13:06.828Z,14.33
2019-02-23T10:15:41.217Z,13.17
2019-02-23T10:18:19.205Z,14.90
2019-02-23T10:20:54.865Z,12.83
2019-02-23T10:23:29.984Z,12.70
2019-02-23T10:26:03.418Z,13.33
2019-02-23T10:28:37.559Z,14.10
2019-02-23T10:31:10.033Z,13.53
2019-02-23T10:33:47.365Z,14.07
2019-02-23T10:36:14.024Z,18.87
2019-02-23T10:38:45.295Z,12.37
2019-02-23T10:41:16.615Z,14.30
2019-02-23T10:43:48.223Z,13.57
2019-02-23T10:46:19.513Z,12.83
2019-02-23T10:48:50.744Z,14.93
2019-02-23T10:51:24.277Z,14.50
2019-02-23T10:53:56.625Z,13.53
2019-02-23T10:56:28.380Z,14.50
2019-02-23T10:58:59.771Z,14.60
2019-02-23T11:01:31.273Z,15.63
2019-02-23T11:04:02.650Z,13.43
2019-02-23T11:06:34.026Z,14.17
2019-02-23T11:09:08.366Z,12.00
2019-02-23T11:11:39.699Z,13.90
2019-02-23T11:14:10.997Z,16.53
2019-02-23T11:16:42.277Z,16.10
2019-02-23T11:19:13.646Z,13.47
2019-02-23T11:21:45.360Z,13.40
2019-02-23T11:24:18.340Z,14.63
2019-02-23T11:26:49.842Z,12.40
2019-02-23T11:29:21.087Z,13.80
2019-02-23T11:31:52.859Z,13.43
2019-02-23T11:34:24.213Z,14.23
2019-02-23T11:36:55.496Z,14.00
2019-02-23T11:39:26.707Z,13.77
2019-02-23T11:41:57.915Z,13.53
2019-02-23T11:44:29.120Z,11.93
2019-02-23T11:47:00.680Z,12.97
2019-02-23T11:49:31.913Z,12.87
2019-02-23T11:52:03.203Z,11.57
2019-02-23T11:54:34.647Z,12.67
2019-02-23T11:57:05.834Z,12.20
2019-02-23T11:59:37.111Z,11.00
2019-02-23T12:02:08.455Z,10.37
2019-02-23T12:04:39.762Z,10.43
2019-02-23T12:07:11.054Z,12.80
2019-02-23T12:09:42.462Z,11.93
2019-02-23T12:12:14.013Z,11.40
2019-02-23T12:14:45.193Z,10.10
2019-02-23T12:17:16.401Z,10.47
2019-02-23T12:19:47.906Z,11.17
2019-02-23T12:22:19.172Z,13.37
2019-02-23T12:24:50.622Z,11.67
2019-02-23T12:27:22.082Z,11.87
2019-02-23T12:29:53.647Z,10.50
2019-02-23T12:32:24.811Z,10.10
2019-02-23T12:34:56.084Z,9.20
2019-02-23T12:37:27.352Z,10.13
2019-02-23T12:39:58.452Z,13.63
2019-02-23T12:42:29.528Z,9.67
2019-02-23T12:45:00.787Z,9.03
2019-02-23T12:47:32.063Z,10.43
2019-02-23T12:50:03.336Z,9.10
2019-02-23T12:52:35.048Z,9.43
2019-02-23T12:55:06.667Z,11.10
2019-02-23T12:57:37.965Z,12.00
2019-02-23T13:00:10.988Z,11.63
2019-02-23T13:02:42.373Z,13.40
2019-02-23T13:05:13.871Z,12.20
2019-02-23T13:07:45.416Z,11.17
2019-02-23T13:10:16.792Z,10.97
2019-02-23T13:13:17.724Z,11.97
2019-02-23T13:16:02.937Z,13.00
2019-02-23T13:19:07.680Z,13.73
2019-02-23T13:22:54.846Z,12.60
2019-02-23T13:25:41.265Z,11.87
2019-02-23T13:29:00.465Z,12.70
2019-02-23T13:32:03.020Z,15.37
2019-02-23T13:35:34.976Z,13.33
2019-02-23T13:38:58.803Z,13.43
2019-02-23T13:42:05.727Z,12.20
2019-02-23T13:45:01.448Z,13.30
2019-02-23T13:48:21.339Z,12.27
2019-02-23T13:51:55.789Z,11.83
2019-02-23T13:55:08.919Z,12.33
2019-02-23T13:58:03.078Z,11.80
2019-02-23T14:01:25.766Z,12.70
2019-02-23T14:04:41.268Z,13.63
2019-02-23T14:07:59.374Z,11.30
2019-02-23T14:11:09.663Z,13.20
2019-02-23T14:14:07.903Z,12.73
2019-02-23T14:17:45.906Z,12.73
2019-02-23T14:21:47.805Z,12.10
2019-02-23T14:25:11.419Z,10.97
2019-02-23T14:28:36.994Z,12.70
2019-02-23T14:31:37.989Z,10.77
2019-02-23T14:35:14.787Z,12.83
2019-02-23T14:39:03.245Z,12.03
2019-02-23T14:42:03.239Z,11.75
2019-02-23T14:45:30.434Z,10.73
2019-02-23T14:48:42.685Z,11.67
2019-02-23T14:51:52.647Z,13.17
2019-02-23T14:55:04.858Z,12.53
2019-02-23T14:58:41.124Z,13.90
2019-02-23T15:01:55.063Z,11.50
2019-02-23T15:05:37.191Z,13.73
2019-02-23T15:08:40.481Z,12.00
2019-02-23T15:11:55.618Z,12.70
2019-02-23T15:15:00.400Z,12.27
2019-02-23T15:18:22.609Z,13.20
2019-02-23T15:21:57.359Z,13.30
2019-02-23T15:24:59.544Z,11.73
2019-02-23T15:28:30.430Z,12.97
2019-02-23T15:31:53.686Z,12.90
2019-02-23T15:35:00.120Z,11.97
2019-02-23T15:37:48.989Z,11.73
2019-02-23T15:40:54.950Z,11.87
2019-02-23T15:44:27.458Z,12.33
2019-02-23T15:47:48.460Z,11.10
2019-02-23T15:50:20.434Z,10.67
2019-02-23T15:52:51.809Z,14.00
2019-02-23T15:55:26.194Z,11.30
2019-02-23T15:57:55.920Z,11.13
2019-02-23T16:00:27.580Z,10.80
2019-02-23T16:02:58.915Z,10.03
2019-02-23T16:05:30.017Z,10.67
2019-02-23T16:08:01.229Z,10.03
2019-02-23T16:10:32.298Z,12.70
2019-02-23T16:13:03.476Z,10.13
2019-02-23T16:15:35.009Z,13.10
2019-02-23T16:18:06.269Z,12.37
2019-02-23T16:20:37.574Z,11.37
2019-02-23T16:23:09.354Z,10.30
2019-02-23T16:25:40.537Z,10.83
2019-02-23T16:28:11.681Z,10.43
2019-02-23T16:30:42.942Z,10.53
2019-02-23T16:33:14.491Z,9.93
2019-02-23T16:35:46.106Z,9.43
2019-02-23T16:38:17.209Z,13.03
2019-02-23T16:40:50.358Z,9.20
2019-02-23T16:43:21.682Z,11.80
2019-02-23T16:45:53.065Z,8.00
2019-02-23T16:48:24.327Z,8.67
2019-02-23T16:50:55.429Z,8.30
2019-02-23T16:53:26.682Z,10.07
2019-02-23T16:55:57.789Z,12.17
2019-02-23T16:58:28.964Z,9.47
2019-02-23T17:01:00.482Z,9.63
2019-02-23T17:03:31.551Z,8.13
2019-02-23T17:06:02.721Z,9.30
2019-02-23T17:08:34.235Z,7.73
2019-02-23T17:11:05.937Z,10.40
2019-02-23T17:13:37.008Z,11.33
2019-02-23T17:16:08.133Z,8.60
2019-02-23T17:18:39.218Z,10.83
2019-02-23T17:21:10.332Z,12.07
2019-02-23T17:23:41.401Z,13.53
2019-02-23T17:26:12.520Z,12.17
2019-02-23T17:28:43.672Z,10.13
2019-02-23T17:31:14.880Z,10.57
2019-02-23T17:33:46.111Z,7.83
2019-02-23T17:36:17.359Z,8.80
2019-02-23T17:38:48.728Z,9.53
2019-02-23T17:41:19.986Z,10.40
2019-02-23T17:43:54.088Z,9.90
2019-02-23T17:46:24.043Z,8.20
2019-02-23T17:48:55.386Z,7.60
2019-02-23T17:51:26.545Z,8.83
2019-02-23T17:53:58.045Z,8.80
2019-02-23T17:56:29.711Z,8.90
2019-02-23T17:59:00.902Z,9.27
2019-02-23T18:01:32.360Z,9.17
2019-02-23T18:04:03.541Z,10.53
2019-02-23T18:06:34.758Z,20.93
2019-02-23T18:09:07.003Z,14.83
2019-02-23T18:11:38.446Z,11.63
2019-02-23T18:14:09.788Z,14.63
2019-02-23T18:16:41.269Z,17.07
2019-02-23T18:19:12.429Z,20.17
2019-02-23T18:21:43.537Z,18.57
2019-02-23T18:24:14.776Z,20.47
2019-02-23T18:26:45.858Z,17.10
2019-02-23T18:29:17.276Z,15.80
2019-02-23T18:31:48.454Z,12.33
2019-02-23T18:34:19.623Z,12.70
2019-02-23T18:36:50.811Z,15.32
2019-02-23T18:39:21.973Z,16.27
2019-02-23T18:41:53.143Z,20.00
2019-02-23T18:44:25.116Z,23.93
2019-02-23T18:46:56.592Z,18.63
2019-02-23T18:49:27.775Z,14.47
2019-02-23T18:51:59.036Z,16.97
2019-02-23T18:54:30.191Z,18.80
2019-02-23T18:57:01.753Z,14.50
2019-02-23T18:59:33.190Z,15.33
2019-02-23T19:02:04.509Z,15.40
2019-02-23T19:04:35.948Z,14.50
2019-02-23T19:07:07.554Z,15.30
2019-02-23T19:09:38.926Z,12.97
2019-02-23T19:12:18.347Z,15.93
2019-02-23T19:14:49.466Z,13.27
2019-02-23T19:17:20.756Z,21.53
2019-02-23T19:19:52.108Z,14.80
2019-02-23T19:22:23.385Z,15.77
2019-02-23T19:24:54.483Z,14.03
2019-02-23T19:27:25.660Z,11.33
2019-02-23T19:29:57.062Z,13.00
2019-02-23T19:32:28.592Z,12.40
2019-02-23T19:34:59.772Z,12.30
2019-02-23T19:37:32.612Z,11.40
2019-02-23T19:40:04.153Z,11.63
2019-02-23T19:42:35.668Z,11.30
2019-02-23T19:45:07.986Z,11.60
2019-02-23T19:47:39.803Z,10.97
2019-02-23T19:50:22.185Z,14.73
2019-02-23T19:52:53.666Z,13.27
2019-02-23T19:55:24.739Z,13.17
2019-02-23T19:57:55.809Z,12.63
2019-02-23T20:00:26.960Z,16.10
2019-02-23T20:02:58.122Z,14.50
2019-02-23T20:05:29.632Z,13.13
2019-02-23T20:08:01.183Z,12.50
2019-02-23T20:10:32.767Z,10.93
2019-02-23T20:13:03.999Z,11.80
2019-02-23T20:15:35.127Z,12.63
2019-02-23T20:18:06.392Z,11.10
2019-02-23T20:20:37.881Z,11.40
2019-02-23T20:23:08.965Z,11.83
2019-02-23T20:25:40.484Z,14.20
2019-02-23T20:28:11.745Z,12.83
2019-02-23T20:30:42.957Z,11.43
2019-02-23T20:33:14.314Z,14.70
2019-02-23T20:35:45.905Z,12.00
2019-02-23T20:38:17.042Z,12.87
2019-02-23T20:40:48.233Z,13.53
2019-02-23T20:43:20.197Z,13.27
2019-02-23T20:45:51.303Z,12.40
2019-02-23T20:48:22.510Z,10.57
2019-02-23T20:50:54.318Z,9.13
2019-02-23T20:53:25.507Z,13.37
2019-02-23T20:55:56.868Z,11.80
2019-02-23T20:58:27.987Z,12.37
2019-02-23T21:00:59.077Z,10.60
2019-02-23T21:03:30.529Z,12.37
2019-02-23T21:06:02.000Z,10.53
2019-02-23T21:08:33.151Z,11.70
2019-02-23T21:11:04.486Z,10.90
2019-02-23T21:13:35.996Z,9.77
2019-02-23T21:16:07.151Z,11.03
2019-02-23T21:18:38.346Z,10.17
2019-02-23T21:21:09.819Z,10.17
2019-02-23T21:23:40.911Z,10.43
2019-02-23T21:26:12.434Z,10.97
2019-02-23T21:28:43.535Z,12.00
2019-02-23T21:31:14.698Z,8.97
2019-02-23T21:33:45.773Z,11.83
2019-02-23T21:36:16.865Z,10.87
2019-02-23T21:38:47.975Z,11.80
2019-02-23T21:41:19.094Z,10.57
2019-02-23T21:43:50.322Z,12.10
2019-02-23T21:46:21.449Z,11.20
2019-02-23T21:48:53.246Z,9.53
2019-02-23T21:51:25.109Z,11.10
2019-02-23T21:53:56.488Z,13.27
2019-02-23T21:56:27.642Z,10.90
2019-02-23T21:58:59.610Z,9.87
2019-02-23T22:01:31.214Z,9.43
2019-02-23T22:04:02.662Z,7.90
2019-02-23T22:06:33.821Z,12.80
2019-02-23T22:09:05.549Z,10.10
2019-02-23T22:11:36.685Z,10.77
2019-02-23T22:14:08.911Z,8.93
2019-02-23T22:16:40.098Z,10.37
2019-02-23T22:19:11.210Z,7.80
2019-02-23T22:21:42.417Z,11.47
2019-02-23T22:24:13.656Z,10.10
2019-02-23T22:26:44.837Z,8.50
2019-02-23T22:29:16.830Z,10.17
2019-02-23T22:31:48.039Z,11.67
2019-02-23T22:34:19.198Z,11.23
2019-02-23T22:36:50.704Z,10.43
2019-02-23T22:39:21.796Z,11.20
2019-02-23T22:41:52.907Z,11.47
2019-02-23T22:44:24.367Z,11.00
2019-02-23T22:46:55.689Z,10.30
2019-02-23T22:49:26.761Z,11.90
2019-02-23T22:51:57.928Z,10.20
2019-02-23T22:54:29.189Z,11.70
2019-02-23T22:57:00.424Z,9.87
2019-02-23T22:59:32.008Z,9.87
2019-02-23T23:02:03.944Z,10.23
2019-02-23T23:04:35.585Z,10.10
2019-02-23T23:07:06.715Z,9.50
2019-02-23T23:09:38.201Z,11.03
2019-02-23T23:12:09.465Z,9.33
2019-02-23T23:14:40.646Z,10.00
2019-02-23T23:17:11.911Z,11.43
2019-02-23T23:19:43.192Z,10.90
2019-02-23T23:22:14.309Z,9.40
2019-02-23T23:24:45.740Z,10.90
2019-02-23T23:27:16.902Z,10.57
2019-02-23T23:29:48.174Z,10.67
2019-02-23T23:32:19.617Z,11.87
2019-02-23T23:34:50.736Z,11.00
2019-02-23T23:37:21.916Z,11.63
2019-02-23T23:39:53.101Z,11.07
2019-02-23T23:42:24.575Z,9.83
2019-02-23T23:44:55.676Z,10.73
2019-02-23T23:47:26.925Z,11.47
2019-02-23T23:49:58.097Z,9.83
2019-02-23T23:52:29.391Z,10.97
2019-02-23T23:55:00.663Z,11.20
2019-02-23T23:57:32.243Z,11.13
